Grande Senegal — ICEU — position and weather

sailwx.info

Track history (hours):
 
Tides and Currents Weather Stations Pressure Air Temp Water Temp Dewpoint Dewpoint Depression Visibility Wind Speed Wind Dir Waves Ship Positions

Grande Senegal

Last reported at 2017-Oct-15 22:40 UTC. Time now 2017-Oct-17 01:15 UTC.
Position N 25°29' W 079°35'.

Length 210 m; draft 8.1 m.

Type: Cargo ship. MMSI: 247285500.

Date/timePositionNaut miles runAvg speedWind from/ knotsBaromVisibWave heightAir tempDewpointWater temp
2017-Oct-15 22:40N 25°29' W 079°35'417.8
2017-Oct-15 22:27N 25°33' W 079°35'1017.6
2017-Oct-15 21:53N 25°43' W 079°33'717.8
2017-Oct-15 21:29N 25°49' W 079°31'1718.1
2017-Oct-15 20:34N 26°05' W 079°26'218.4
2017-Oct-15 20:29N 26°07' W 079°26'918.2
2017-Oct-15 20:01N 26°15' W 079°24'  
2017-Oct-13 10:55N 31°04' W 079°25'5815.7
2017-Oct-13 07:12N 31°45' W 078°37'315.3
2017-Oct-13 07:00N 31°47' W 078°35'815.4
2017-Oct-13 06:30N 31°53' W 078°28'815.8
2017-Oct-13 06:00N 31°58' W 078°22'31813.4
2017-Oct-12 06:18N 36°51' W 075°52'517.1
2017-Oct-12 06:00N 36°55' W 075°57'611.2
2017-Oct-12 05:30N 36°59' W 076°01'9715.8
2017-Oct-11 23:19N 38°35' W 076°26'615.4
2017-Oct-11 22:55N 38°41' W 076°26'615.8
2017-Oct-11 22:30N 38°47' W 076°25'816.3
2017-Oct-11 22:00N 38°55' W 076°23'815.3
2017-Oct-11 21:30N 39°03' W 076°23'714.5
2017-Oct-11 21:00N 39°10' W 076°26'611.9
2017-Oct-11 20:30N 39°13' W 076°32'1 2.2
2017-Oct-11 19:58N 39°14' W 076°32'0 0.0
2017-Oct-11 19:25N 39°14' W 076°32'0 0.0
2017-Oct-11 18:59N 39°14' W 076°32'0 0.0
2017-Oct-11 18:28N 39°14' W 076°32'0 0.0
2017-Oct-11 17:58N 39°14' W 076°32'0 0.0
2017-Oct-11 17:28N 39°14' W 076°32'0 0.0
2017-Oct-11 16:59N 39°14' W 076°32'132 7.3
2017-Oct-10 22:50N 37°04' W 076°06'517.1
2017-Oct-10 22:30N 37°00' W 076°02'714.9
2017-Oct-10 22:00N 36°55' W 075°55'  
Track history (hours):
 
Tides and Currents Weather Stations Pressure Air Temp Water Temp Dewpoint Dewpoint Depression Visibility Wind Speed Wind Dir Waves Ship Positions

Grande Senegal

Last reported at 2017-Oct-15 22:40 UTC. Time now 2017-Oct-17 01:15 UTC.
Position N 25°29' W 079°35'.

Length 210 m; draft 8.1 m.

Type: Cargo ship. MMSI: 247285500.

Date/timePositionNaut miles runAvg speedWind from/ knotsBaromVisibWave heightAir tempDewpointWater temp
2017-Oct-15 22:40N 25°29' W 079°35'417.8
2017-Oct-15 22:27N 25°33' W 079°35'1017.6
2017-Oct-15 21:53N 25°43' W 079°33'717.8
2017-Oct-15 21:29N 25°49' W 079°31'1718.1
2017-Oct-15 20:34N 26°05' W 079°26'218.4
2017-Oct-15 20:29N 26°07' W 079°26'918.2
2017-Oct-15 20:01N 26°15' W 079°24'  
2017-Oct-13 10:55N 31°04' W 079°25'5815.7
2017-Oct-13 07:12N 31°45' W 078°37'315.3
2017-Oct-13 07:00N 31°47' W 078°35'815.4
2017-Oct-13 06:30N 31°53' W 078°28'815.8
2017-Oct-13 06:00N 31°58' W 078°22'31813.4
2017-Oct-12 06:18N 36°51' W 075°52'517.1
2017-Oct-12 06:00N 36°55' W 075°57'611.2
2017-Oct-12 05:30N 36°59' W 076°01'9715.8
2017-Oct-11 23:19N 38°35' W 076°26'615.4
2017-Oct-11 22:55N 38°41' W 076°26'615.8
2017-Oct-11 22:30N 38°47' W 076°25'816.3
2017-Oct-11 22:00N 38°55' W 076°23'815.3
2017-Oct-11 21:30N 39°03' W 076°23'714.5
2017-Oct-11 21:00N 39°10' W 076°26'611.9
2017-Oct-11 20:30N 39°13' W 076°32'1 2.2
2017-Oct-11 19:58N 39°14' W 076°32'0 0.0
2017-Oct-11 19:25N 39°14' W 076°32'0 0.0
2017-Oct-11 18:59N 39°14' W 076°32'0 0.0
2017-Oct-11 18:28N 39°14' W 076°32'0 0.0
2017-Oct-11 17:58N 39°14' W 076°32'0 0.0
2017-Oct-11 17:28N 39°14' W 076°32'0 0.0
2017-Oct-11 16:59N 39°14' W 076°32'132 7.3
2017-Oct-10 22:50N 37°04' W 076°06'517.1
2017-Oct-10 22:30N 37°00' W 076°02'714.9
2017-Oct-10 22:00N 36°55' W 075°55'  

Dump ship's entire track history